Time;durP1;ratioP1;P1;durP2;ratioP2;P2;SDS_P1;SDS_P2;PMS_P1;PMS_P2;Temp;Humidity;BMP_temperature;BMP_pressure;BME280_temperature;BME280_humidity;BME280_pressure;Samples;Min_cycle;Max_cycle;Signal;HPM_P1;HPM_P2
2021/12/06 00:00:39;;;;;;;37.63;23.52;;;;;;;0.14;72.39;98945.61;1767689;81;21033;-41
2021/12/06 00:03:10;;;;;;;36.75;23.62;;;;;;;0.11;72.47;98953.64;1720268;83;21045;-41
2021/12/06 00:05:38;;;;;;;37.00;24.32;;;;;;;0.12;72.52;98948.56;1720819;82;21156;-41
2021/12/06 00:08:05;;;;;;;34.60;23.27;;;;;;;0.11;72.58;98960.30;1720671;83;21559;-41
2021/12/06 00:10:34;;;;;;;39.40;25.70;;;;;;;0.10;72.62;98964.05;1720699;82;20937;-41
2021/12/06 00:13:02;;;;;;;36.30;24.00;;;;;;;0.14;72.63;98965.05;1720718;82;21045;-41
2021/12/06 00:15:32;;;;;;;41.02;24.37;;;;;;;0.15;72.56;98966.61;1720708;82;20993;-41
2021/12/06 00:18:00;;;;;;;32.98;23.12;;;;;;;0.16;72.52;98966.06;1720635;83;21160;-41
2021/12/06 00:20:27;;;;;;;36.17;23.52;;;;;;;0.13;72.74;98977.34;1720695;82;21021;-41
2021/12/06 00:22:54;;;;;;;37.10;24.75;;;;;;;0.17;72.72;98966.32;1720548;83;21121;-41
2021/12/06 00:25:21;;;;;;;38.70;24.98;;;;;;;0.18;72.69;98972.69;1720814;83;21057;-41
2021/12/06 00:27:48;;;;;;;36.40;23.80;;;;;;;0.21;72.65;98967.29;1711633;83;21056;-41
2021/12/06 00:30:16;;;;;;;43.70;26.40;;;;;;;0.22;72.57;98964.33;1704515;84;21552;-41
2021/12/06 00:32:44;;;;;;;37.35;24.00;;;;;;;0.25;72.68;98965.59;1704401;84;21075;-41
2021/12/06 00:35:17;;;;;;;35.40;23.75;;;;;;;0.28;72.59;98967.68;1704737;83;21094;-41
2021/12/06 00:37:42;;;;;;;;;;;;;;;0.29;72.60;98966.02;1700969;83;20984;-41
2021/12/06 00:40:11;;;;;;;38.28;23.85;;;;;;;0.32;72.67;98960.65;1704469;84;20200;-41
2021/12/06 00:42:38;;;;;;;39.10;24.65;;;;;;;0.24;72.87;98959.47;1704711;84;21174;-41
2021/12/06 00:45:07;;;;;;;38.92;25.10;;;;;;;0.31;72.74;98974.52;1704640;84;20984;-41
2021/12/06 00:47:33;;;;;;;40.63;25.35;;;;;;;0.32;72.71;98973.98;1704654;84;21076;-41
2021/12/06 00:50:01;;;;;;;37.90;24.65;;;;;;;0.36;72.79;98967.74;1704474;83;21048;-41
2021/12/06 00:52:27;;;;;;;40.43;26.42;;;;;;;0.37;72.73;98964.53;1698459;83;21044;-41
2021/12/06 00:54:54;;;;;;;38.75;24.87;;;;;;;0.39;72.74;98961.80;1704558;83;21538;-41
2021/12/06 00:57:21;;;;;;;35.90;24.63;;;;;;;0.40;72.72;98955.38;1704423;83;21020;-41
2021/12/06 00:59:49;;;;;;;38.33;24.35;;;;;;;0.42;72.73;98960.42;1704373;84;21083;-41
2021/12/06 01:02:16;;;;;;;41.40;25.17;;;;;;;0.41;72.70;98959.63;1704366;84;21051;-40
2021/12/06 01:04:45;;;;;;;36.85;25.08;;;;;;;0.42;72.83;98959.09;1704462;84;21096;-41
2021/12/06 01:07:12;;;;;;;35.17;23.73;;;;;;;0.40;72.95;98950.05;1704707;84;21126;-41
2021/12/06 01:09:40;;;;;;;36.77;24.18;;;;;;;0.40;72.90;98954.05;1704332;83;21066;-41
2021/12/06 01:12:08;;;;;;;41.00;26.10;;;;;;;0.40;73.05;98943.92;1704416;84;21052;-41
2021/12/06 01:14:36;;;;;;;39.80;24.72;;;;;;;0.40;73.05;98939.38;1704738;84;21087;-41
2021/12/06 01:17:05;;;;;;;36.60;24.15;;;;;;;0.41;73.12;98939.63;1704663;84;21057;-41
2021/12/06 01:19:34;;;;;;;38.58;24.40;;;;;;;0.43;73.13;98937.45;1704671;83;21571;-41
2021/12/06 01:22:17;;;;;;;37.70;23.70;;;;;;;0.44;73.11;98940.34;1704734;83;20994;-41
2021/12/06 01:24:40;;;;;;;33.67;22.02;;;;;;;0.44;73.09;98936.34;1703145;83;21095;-42
2021/12/06 01:27:15;;;;;;;35.50;22.60;;;;;;;0.47;73.21;98936.30;1716176;82;21036;-41
2021/12/06 01:40:04;;;;;;;35.78;23.10;;;;;;;0.54;73.11;98930.52;1723392;83;20978;-41
2021/12/06 01:42:31;;;;;;;35.15;22.15;;;;;;;0.54;73.23;98927.86;1723140;83;21320;-41
2021/12/06 01:44:58;;;;;;;33.80;23.35;;;;;;;0.57;73.12;98928.06;1723156;83;21125;-41
2021/12/06 01:47:33;;;;;;;36.85;23.80;;;;;;;0.54;73.11;98925.19;1723018;83;21077;-41
2021/12/06 01:50:11;;;;;;;32.83;22.40;;;;;;;0.53;73.19;98926.30;1723419;83;21077;-41
2021/12/06 01:52:43;;;;;;;31.30;21.73;;;;;;;0.48;73.32;98919.22;1722940;83;21049;-41
2021/12/06 01:55:13;;;;;;;33.33;22.93;;;;;;;0.51;73.45;98924.47;1723595;83;21022;-41
2021/12/06 01:57:40;;;;;;;31.57;21.57;;;;;;;0.55;73.45;98922.77;1723521;83;21859;-41
2021/12/06 02:00:16;;;;;;;29.50;21.25;;;;;;;0.56;73.44;98921.69;1723289;83;20990;-41
2021/12/06 02:02:43;;;;;;;30.70;20.15;;;;;;;0.62;73.35;98916.47;1723459;83;21113;-41
2021/12/06 02:05:11;;;;;;;27.95;19.75;;;;;;;0.61;73.25;98914.89;1723184;83;21572;-41
2021/12/06 02:07:38;;;;;;;29.37;20.40;;;;;;;0.63;73.25;98913.48;1723121;83;21049;-41
2021/12/06 02:10:07;;;;;;;29.32;20.50;;;;;;;0.66;73.23;98906.22;1723306;83;21592;-41
2021/12/06 02:12:34;;;;;;;29.57;19.90;;;;;;;0.67;73.39;98903.02;1723520;82;21021;-41
2021/12/06 02:15:08;;;;;;;27.77;19.50;;;;;;;0.68;73.34;98908.02;1712744;83;20997;-41
2021/12/06 02:17:38;;;;;;;29.37;19.50;;;;;;;0.70;73.31;98903.19;1712661;83;21535;-41
2021/12/06 02:20:07;;;;;;;29.60;20.50;;;;;;;0.77;73.16;98902.76;1712387;83;21522;-41
2021/12/06 02:22:37;;;;;;;29.75;21.45;;;;;;;0.78;73.26;98901.64;1722312;83;21800;-41
2021/12/06 02:25:07;;;;;;;29.60;19.95;;;;;;;0.81;73.38;98909.05;1723393;83;21009;-41
2021/12/06 02:27:33;;;;;;;;;;;;;;;0.87;73.21;98906.50;1725688;83;21603;-41
2021/12/06 02:30:05;;;;;;;30.30;20.17;;;;;;;0.94;73.04;98909.50;1677668;84;20142;-41
2021/12/06 02:32:35;;;;;;;29.85;20.05;;;;;;;0.87;73.22;98914.51;1680684;84;21091;-42
2021/12/06 02:35:02;;;;;;;31.17;21.33;;;;;;;0.95;73.37;98915.09;1701480;84;21546;-41
2021/12/06 02:37:33;;;;;;;29.57;20.20;;;;;;;1.03;73.04;98908.99;1701439;84;20957;-41
2021/12/06 02:40:00;;;;;;;27.62;19.95;;;;;;;1.03;72.70;98913.54;1701675;84;21020;-41
2021/12/06 02:42:27;;;;;;;28.52;19.10;;;;;;;0.99;72.58;98909.38;1701467;84;21001;-40
2021/12/06 02:44:54;;;;;;;26.57;19.75;;;;;;;1.00;72.64;98906.95;1701453;84;21036;-41
2021/12/06 02:47:21;;;;;;;27.85;20.12;;;;;;;1.08;72.58;98914.74;1701513;84;21137;-41
2021/12/06 02:49:48;;;;;;;31.93;20.88;;;;;;;1.10;72.69;98913.90;1701533;84;21045;-41
2021/12/06 02:52:15;;;;;;;27.15;19.85;;;;;;;1.11;72.61;98916.27;1701618;84;21567;-41
2021/12/06 02:54:43;;;;;;;26.20;18.80;;;;;;;1.13;72.60;98923.95;1701552;84;20981;-41
2021/12/06 02:59:37;;;;;;;29.12;20.80;;;;;;;1.26;72.44;98919.05;1701693;84;22098;-41
2021/12/06 03:02:07;;;;;;;31.02;20.27;;;;;;;1.27;72.41;98922.75;1701547;84;21020;-41
2021/12/06 03:04:34;;;;;;;31.15;20.50;;;;;;;1.26;72.40;98931.86;1701759;84;20981;-41
2021/12/06 03:07:01;;;;;;;26.45;19.15;;;;;;;1.25;72.37;98928.97;1701412;84;21531;-41
2021/12/06 03:09:37;;;;;;;28.50;20.12;;;;;;;1.27;72.25;98929.44;1701627;84;21017;-41
2021/12/06 03:12:09;;;;;;;30.20;20.30;;;;;;;1.32;72.26;98931.17;1701435;84;21248;-41
2021/12/06 03:14:46;;;;;;;32.67;21.75;;;;;;;1.29;72.44;98929.92;1701497;84;20933;-41
2021/12/06 03:17:16;;;;;;;30.57;21.12;;;;;;;1.29;72.49;98927.80;1701710;84;21585;-41
2021/12/06 03:19:43;;;;;;;28.50;20.03;;;;;;;1.30;72.47;98931.50;1701949;84;20957;-41
2021/12/06 03:22:12;;;;;;;29.67;20.55;;;;;;;1.35;72.36;98927.91;1701662;84;20985;-41
2021/12/06 03:24:39;;;;;;;30.62;22.40;;;;;;;1.39;72.20;98922.72;1701726;83;21558;-41
2021/12/06 03:27:06;;;;;;;30.02;21.02;;;;;;;1.36;72.45;98921.98;1701447;83;20997;-41
2021/12/06 03:29:33;;;;;;;28.92;19.92;;;;;;;1.35;72.48;98922.56;1708033;83;21020;-41
2021/12/06 03:32:02;;;;;;;29.85;19.98;;;;;;;1.36;72.45;98929.45;1708884;84;21024;-41
2021/12/06 03:34:30;;;;;;;28.62;20.60;;;;;;;1.39;72.38;98924.06;1661926;84;21065;-41
2021/12/06 03:36:59;;;;;;;31.55;21.87;;;;;;;1.43;72.37;98925.02;1720873;83;21179;-41
2021/12/06 03:39:30;;;;;;;30.48;21.93;;;;;;;1.36;72.39;98921.98;1721034;83;20965;-41
2021/12/06 03:42:01;;;;;;;32.80;20.92;;;;;;;1.36;72.39;98921.98;1720973;82;21036;-41
2021/12/06 03:44:28;;;;;;;31.37;21.33;;;;;;;1.35;72.66;98937.80;1720839;82;21245;-41
2021/12/06 03:47:01;;;;;;;31.27;21.57;;;;;;;1.37;72.68;98929.70;1692088;83;21040;-41
2021/12/06 03:49:30;;;;;;;30.08;21.37;;;;;;;1.44;72.62;98925.25;1721037;83;22034;-41
2021/12/06 03:51:56;;;;;;;34.80;23.45;;;;;;;1.42;72.59;98920.77;1720184;83;20996;-41
2021/12/06 03:54:26;;;;;;;32.75;22.22;;;;;;;1.37;72.80;98911.01;1720881;83;21051;-41
2021/12/06 03:56:53;;;;;;;30.27;20.85;;;;;;;1.37;72.85;98912.89;1720874;82;21527;-41
2021/12/06 03:59:20;;;;;;;27.98;19.98;;;;;;;1.38;72.85;98921.14;1720910;82;21052;-41
2021/12/06 04:01:47;;;;;;;32.20;21.60;;;;;;;1.42;72.80;98920.77;1721101;83;21809;-46
2021/12/06 04:04:16;;;;;;;28.38;20.72;;;;;;;1.42;73.04;98913.54;1721054;83;21020;-41
2021/12/06 04:06:44;;;;;;;29.90;21.02;;;;;;;1.41;72.95;98914.62;1720999;83;21087;-42
2021/12/06 04:09:11;;;;;;;27.67;19.85;;;;;;;1.37;73.07;98897.66;1721066;83;21586;-41
2021/12/06 04:11:40;;;;;;;30.20;21.82;;;;;;;1.31;73.24;98905.56;1721055;83;21645;-41
2021/12/06 04:14:08;;;;;;;30.40;20.77;;;;;;;1.33;73.26;98909.27;1720922;83;21146;-41
2021/12/06 04:16:35;;;;;;;30.57;22.13;;;;;;;1.29;73.50;98912.56;1721023;82;21534;-41
2021/12/06 04:19:04;;;;;;;32.25;22.00;;;;;;;1.26;73.64;98919.84;1720936;83;21024;-41
2021/12/06 04:21:31;;;;;;;28.12;19.65;;;;;;;1.27;73.68;98920.09;1721168;83;21052;-41
2021/12/06 04:23:58;;;;;;;29.70;20.55;;;;;;;1.34;73.81;98919.65;1720944;83;21504;-41
2021/12/06 04:26:25;;;;;;;31.52;20.97;;;;;;;1.48;73.53;98915.52;1720986;83;21105;-41
2021/12/06 04:28:59;;;;;;;29.72;20.90;;;;;;;1.49;73.46;98918.44;1717078;83;20942;-41
2021/12/06 04:31:22;;;;;;;32.73;21.65;;;;;;;1.47;73.42;98920.62;1712186;83;21028;-41
2021/12/06 04:33:49;;;;;;;31.00;21.37;;;;;;;1.44;73.54;98920.70;1731178;82;21009;-42
2021/12/06 04:36:16;;;;;;;32.38;22.73;;;;;;;1.41;73.64;98924.52;1712835;83;21116;-41
2021/12/06 04:38:43;;;;;;;32.63;21.73;;;;;;;1.48;73.61;98918.19;1731150;82;21185;-41
2021/12/06 04:41:09;;;;;;;34.00;22.73;;;;;;;1.52;73.62;98914.59;1712816;83;21531;-41
2021/12/06 04:43:38;;;;;;;37.42;24.05;;;;;;;1.52;73.67;98916.47;1731572;82;21903;-41
2021/12/06 04:46:04;;;;;;;31.27;21.62;;;;;;;1.49;73.75;98917.10;1713053;83;21028;-41
2021/12/06 04:48:32;;;;;;;32.05;21.90;;;;;;;1.47;73.78;98915.28;1713080;83;21108;-42
2021/12/06 04:50:59;;;;;;;33.60;21.90;;;;;;;1.51;73.86;98917.56;1731267;82;21086;-42
2021/12/06 04:53:35;;;;;;;35.25;24.32;;;;;;;1.55;73.83;98920.64;1707174;83;21344;-42
2021/12/06 04:56:16;;;;;;;35.33;23.85;;;;;;;1.53;73.90;98923.39;1700304;83;20945;-41
2021/12/06 04:58:57;;;;;;;35.13;24.23;;;;;;;1.50;74.10;98919.44;1683405;85;21005;-41
2021/12/06 05:01:28;;;;;;;34.08;22.90;;;;;;;1.49;74.16;98923.78;1683619;84;21526;-41
2021/12/06 05:03:57;;;;;;;35.55;23.98;;;;;;;1.50;74.19;98917.34;1653845;85;21127;-41
2021/12/06 05:06:28;;;;;;;34.53;23.42;;;;;;;1.54;74.15;98922.30;1683375;85;20977;-41
2021/12/06 05:08:58;;;;;;;37.28;24.77;;;;;;;1.52;74.31;98930.62;1683320;85;20972;-41
2021/12/06 05:11:27;;;;;;;36.70;24.25;;;;;;;1.50;74.40;98928.03;1683867;85;21068;-41
2021/12/06 05:13:56;;;;;;;37.55;24.40;;;;;;;1.50;74.53;98922.69;1654505;85;21503;-41
2021/12/06 05:16:23;;;;;;;33.83;23.98;;;;;;;1.54;74.41;98924.43;1683692;85;21097;-41
2021/12/06 05:18:49;;;;;;;35.60;24.92;;;;;;;1.64;74.41;98932.70;1683673;85;20930;-42
2021/12/06 05:21:16;;;;;;;40.30;25.30;;;;;;;1.66;74.32;98938.51;1683618;85;21729;-41
2021/12/06 05:23:44;;;;;;;37.50;23.45;;;;;;;1.64;74.34;98940.72;1683518;85;21001;-41
2021/12/06 05:26:11;;;;;;;35.52;23.83;;;;;;;1.62;74.42;98939.69;1683728;85;21116;-41
2021/12/06 05:28:42;;;;;;;36.83;23.67;;;;;;;1.62;74.53;98945.03;1687258;84;21566;-41
2021/12/06 05:31:14;;;;;;;38.05;25.35;;;;;;;1.72;74.43;98944.74;1684453;85;21809;-41
2021/12/06 05:33:36;;;;;;;36.03;23.90;;;;;;;1.78;74.23;98946.72;1752002;81;21031;-41
2021/12/06 05:36:04;;;;;;;39.90;25.65;;;;;;;1.75;74.17;98943.32;1752914;81;20999;-41
2021/12/06 05:38:31;;;;;;;29.77;18.52;;;;;;;1.72;74.29;98938.06;1752969;81;21054;-42
2021/12/06 05:40:58;;;;;;;34.58;23.55;;;;;;;1.73;74.20;98941.52;1753025;81;21047;-41
2021/12/06 05:43:25;;;;;;;36.13;24.20;;;;;;;1.79;74.16;98945.62;1752590;81;21506;-42
2021/12/06 05:45:52;;;;;;;34.78;24.52;;;;;;;1.85;73.98;98942.23;1752568;81;21079;-41
2021/12/06 05:48:19;;;;;;;36.03;24.25;;;;;;;1.83;74.09;98943.91;1752665;81;21020;-42
2021/12/06 05:50:46;;;;;;;37.17;24.07;;;;;;;1.82;74.08;98943.66;1752926;81;21703;-41
2021/12/06 05:53:14;;;;;;;34.73;23.57;;;;;;;1.80;74.05;98935.70;1752389;81;21843;-42
2021/12/06 05:55:41;;;;;;;38.78;25.05;;;;;;;1.79;74.13;98938.95;1752702;81;20959;-42
2021/12/06 05:58:08;;;;;;;37.90;24.92;;;;;;;1.82;74.03;98940.99;1752581;81;21031;-42
2021/12/06 06:00:35;;;;;;;41.33;25.80;;;;;;;1.78;74.07;98948.06;1752681;81;21063;-41
2021/12/06 06:03:03;;;;;;;39.75;24.77;;;;;;;1.71;74.28;98948.50;1752708;81;21027;-42
2021/12/06 06:05:32;;;;;;;37.73;23.87;;;;;;;1.69;74.45;98944.02;1753064;81;21107;-42
2021/12/06 06:08:00;;;;;;;42.50;25.68;;;;;;;1.69;74.48;98941.91;1752284;81;20904;-41
2021/12/06 06:10:28;;;;;;;37.05;23.67;;;;;;;1.74;74.44;98946.54;1752806;81;21079;-42
2021/12/06 06:12:54;;;;;;;40.65;25.55;;;;;;;1.76;74.49;98946.23;1752484;81;20993;-42
2021/12/06 06:15:21;;;;;;;40.08;25.60;;;;;;;1.74;74.55;98945.78;1752837;81;21083;-41
2021/12/06 06:17:47;;;;;;;37.00;24.05;;;;;;;1.72;74.50;98950.09;1752629;81;21978;-41
2021/12/06 06:20:22;;;;;;;36.33;23.60;;;;;;;1.69;74.65;98955.27;1752482;81;21007;-41
2021/12/06 06:22:49;;;;;;;41.58;25.95;;;;;;;1.75;74.63;98955.34;1751745;81;21506;-41
2021/12/06 06:25:16;;;;;;;40.23;25.70;;;;;;;1.78;74.55;98956.08;1752880;81;21007;-42
2021/12/06 06:27:44;;;;;;;39.23;25.02;;;;;;;1.77;74.59;98958.51;1752850;81;21609;-42
2021/12/06 06:30:11;;;;;;;36.68;23.62;;;;;;;1.74;74.59;98955.13;1757845;80;21094;-42
2021/12/06 06:32:38;;;;;;;39.55;23.62;;;;;;;1.69;74.62;98960.04;1759468;81;21014;-41
2021/12/06 06:35:06;;;;;;;41.35;26.17;;;;;;;1.74;74.69;98959.14;1759948;81;21033;-41
2021/12/06 06:40:37;;;;;;;42.83;26.05;;;;;;;1.74;74.81;98963.15;1717908;81;64686;-42
2021/12/06 06:44:37;;;;;;;43.60;25.37;;;;;;;1.75;75.01;98959.36;1814144;79;23718;-40
2021/12/06 06:47:04;;;;;;;41.00;25.90;;;;;;;1.75;74.98;98956.68;1786881;80;21516;-40
2021/12/06 06:49:32;;;;;;;39.35;25.57;;;;;;;1.85;74.65;98961.73;1787767;80;21667;-40
2021/12/06 06:52:00;;;;;;;49.23;29.12;;;;;;;1.84;74.71;98960.73;1787527;80;21549;-40
2021/12/06 06:54:26;;;;;;;41.73;26.73;;;;;;;1.86;74.80;98962.53;1787468;80;21584;-40
2021/12/06 06:56:53;;;;;;;41.02;25.45;;;;;;;1.84;74.71;98962.06;1787706;80;21482;-40
2021/12/06 06:59:19;;;;;;;41.23;25.95;;;;;;;1.89;74.71;98964.02;1787586;80;20937;-40
2021/12/06 07:01:46;;;;;;;45.28;28.12;;;;;;;1.97;74.48;98964.61;1787624;80;21091;-40
2021/12/06 07:04:13;;;;;;;45.52;28.55;;;;;;;1.97;74.51;98967.28;1787408;80;22196;-39
2021/12/06 07:06:40;;;;;;;47.67;28.52;;;;;;;1.99;74.48;98973.08;1787640;80;21009;-40
2021/12/06 07:09:07;;;;;;;47.27;27.62;;;;;;;2.01;74.55;98977.58;1787616;80;21043;-40
2021/12/06 07:11:34;;;;;;;40.65;24.85;;;;;;;2.02;74.31;98982.38;1787636;80;20976;-40
2021/12/06 07:14:01;;;;;;;41.05;26.95;;;;;;;2.09;74.20;98991.50;1787589;80;21090;-40
2021/12/06 07:16:29;;;;;;;52.75;27.35;;;;;;;2.15;74.00;98986.25;1787553;80;21029;-40
2021/12/06 07:18:57;;;;;;;49.25;27.87;;;;;;;2.15;74.12;98987.59;1787665;80;21000;-40
2021/12/06 07:21:24;;;;;;;67.65;28.95;;;;;;;2.18;74.05;98993.64;1787430;80;21037;-40
2021/12/06 07:23:51;;;;;;;142.85;34.05;;;;;;;2.20;74.00;98990.66;1787631;80;21009;-40
2021/12/06 07:26:20;;;;;;;48.87;27.30;;;;;;;2.27;73.97;98991.55;1787580;80;21079;-40
2021/12/06 07:28:48;;;;;;;104.65;32.50;;;;;;;2.38;73.89;98982.09;1787653;80;21569;-40
2021/12/06 07:31:16;;;;;;;50.75;26.95;;;;;;;2.48;73.46;98989.80;1787779;80;21048;-40
2021/12/06 07:33:45;;;;;;;183.22;39.35;;;;;;;2.50;73.43;98983.60;1787704;80;20925;-40
2021/12/06 07:36:11;;;;;;;79.95;30.85;;;;;;;2.52;73.38;98985.39;1787732;80;21016;-40
2021/12/06 07:38:39;;;;;;;43.55;27.10;;;;;;;2.52;73.20;98982.72;1787558;80;21131;-41
2021/12/06 07:41:07;;;;;;;45.78;26.17;;;;;;;2.51;73.08;98989.19;1787489;80;20976;-40
2021/12/06 07:43:34;;;;;;;43.42;27.20;;;;;;;2.51;72.94;98994.55;1746106;81;20941;-40
2021/12/06 07:46:01;;;;;;;44.23;27.55;;;;;;;2.48;72.96;98998.62;1774097;80;21876;-40
2021/12/06 07:48:29;;;;;;;91.55;30.77;;;;;;;2.47;73.20;98994.94;1737293;82;21652;-40
2021/12/06 07:50:56;;;;;;;91.02;31.73;;;;;;;2.46;73.25;98996.83;1774164;80;21515;-40
2021/12/06 07:53:23;;;;;;;208.28;43.10;;;;;;;2.45;73.23;98991.78;1736873;82;21593;-40
2021/12/06 07:55:49;;;;;;;53.48;28.45;;;;;;;2.48;73.23;98987.13;1773601;80;20994;-40
2021/12/06 07:58:16;;;;;;;81.02;31.02;;;;;;;2.50;73.15;98987.61;1773522;80;21553;-40
2021/12/06 08:00:46;;;;;;;48.95;27.32;;;;;;;2.45;73.32;98989.90;1736557;82;21104;-40
2021/12/06 08:03:13;;;;;;;47.58;27.98;;;;;;;2.45;73.47;98991.23;1773536;80;21859;-41
2021/12/06 08:05:42;;;;;;;172.30;36.90;;;;;;;2.44;73.49;98991.54;1736488;82;20966;-40
2021/12/06 08:08:16;;;;;;;47.20;26.33;;;;;;;2.50;73.51;98996.98;1773544;80;21046;-40
2021/12/06 08:10:48;;;;;;;51.50;28.20;;;;;;;2.57;73.29;99006.64;1773788;80;21016;-40
2021/12/06 08:13:19;;;;;;;88.78;29.15;;;;;;;2.53;73.24;99007.04;1736586;82;21089;-40
2021/12/06 08:15:47;;;;;;;49.42;28.23;;;;;;;2.50;73.31;99013.03;1773673;80;21789;-40
2021/12/06 08:18:14;;;;;;;45.83;25.90;;;;;;;2.48;73.43;99012.55;1736363;82;21010;-40
2021/12/06 08:20:41;;;;;;;41.08;24.95;;;;;;;2.48;73.43;99013.34;1773480;80;21522;-40
2021/12/06 08:23:08;;;;;;;42.20;25.88;;;;;;;2.57;73.23;99010.11;1736517;82;21077;-40
2021/12/06 08:25:35;;;;;;;44.63;26.90;;;;;;;2.61;73.06;99008.95;1773521;80;21589;-40
2021/12/06 08:28:04;;;;;;;44.73;26.90;;;;;;;2.57;73.09;98998.06;1736477;82;21357;-40
2021/12/06 08:30:31;;;;;;;44.88;25.80;;;;;;;2.55;73.15;99003.52;1773423;80;20961;-40
2021/12/06 08:33:01;;;;;;;43.13;26.12;;;;;;;2.52;73.10;98993.42;1736508;82;20981;-40
2021/12/06 08:35:28;;;;;;;42.93;26.73;;;;;;;2.52;73.12;98988.06;1773677;80;20981;-40
2021/12/06 08:37:56;;;;;;;46.88;25.95;;;;;;;2.51;73.20;98979.28;1773662;80;21522;-40
2021/12/06 08:40:23;;;;;;;46.35;27.77;;;;;;;2.50;73.41;98976.91;1736608;82;21801;-40
2021/12/06 08:42:50;;;;;;;47.08;25.72;;;;;;;2.46;73.47;98974.09;1773316;80;21035;-40
2021/12/06 08:45:16;;;;;;;44.35;26.17;;;;;;;2.45;73.51;98976.52;1781858;80;21357;-40
2021/12/06 08:47:43;;;;;;;44.83;25.40;;;;;;;2.49;73.58;98975.33;1744960;82;21003;-40
2021/12/06 08:50:19;;;;;;;46.98;25.48;;;;;;;2.57;73.57;98978.55;1716678;83;20994;-40
2021/12/06 08:52:43;;;;;;;46.30;27.50;;;;;;;2.60;73.54;98975.26;1719210;83;21517;-40
2021/12/06 08:55:10;;;;;;;44.23;26.25;;;;;;;2.59;73.61;98973.68;1744837;82;21021;-40
2021/12/06 08:57:37;;;;;;;42.53;24.75;;;;;;;2.61;73.64;98975.50;1713601;83;21047;-40
2021/12/06 09:00:10;;;;;;;39.40;25.05;;;;;;;2.69;73.52;98967.22;1716617;83;21582;-40
2021/12/06 09:02:38;;;;;;;40.50;24.67;;;;;;;2.74;73.32;98959.02;1720353;83;21020;-40
2021/12/06 09:05:06;;;;;;;41.20;24.47;;;;;;;2.77;73.31;98955.70;1745001;82;21109;-41
2021/12/06 09:07:33;;;;;;;42.98;25.57;;;;;;;2.77;73.30;98948.46;1716897;83;22146;-40
2021/12/06 09:10:00;;;;;;;48.13;26.15;;;;;;;2.74;73.17;98948.31;1720246;83;20988;-40
2021/12/06 09:12:28;;;;;;;43.48;24.60;;;;;;;2.67;73.24;98942.09;1744985;82;21083;-40
2021/12/06 09:14:57;;;;;;;41.10;24.98;;;;;;;2.66;73.25;98940.55;1713661;83;21085;-40
2021/12/06 09:17:23;;;;;;;47.10;26.52;;;;;;;2.62;73.53;98934.23;1716894;83;21115;-41
2021/12/06 09:19:51;;;;;;;42.98;24.95;;;;;;;2.61;73.65;98935.36;1716771;83;21029;-40
2021/12/06 09:22:18;;;;;;;38.42;23.95;;;;;;;2.57;73.67;98928.49;1716851;83;21025;-41
2021/12/06 09:24:45;;;;;;;44.38;26.10;;;;;;;2.56;73.81;98936.86;1716735;83;21001;-40
2021/12/06 09:27:12;;;;;;;43.52;26.10;;;;;;;2.57;73.87;98931.72;1716873;83;21555;-41
2021/12/06 09:29:39;;;;;;;45.15;26.37;;;;;;;2.52;73.99;98923.30;1716808;83;21143;-41
2021/12/06 09:32:08;;;;;;;42.23;25.62;;;;;;;2.48;74.24;98925.05;1717009;83;21077;-40
2021/12/06 09:34:38;;;;;;;41.98;25.15;;;;;;;2.46;74.44;98925.93;1716988;83;21030;-40
2021/12/06 09:37:05;;;;;;;;;;;;;;;2.51;74.40;98923.09;1719374;83;20942;-40
2021/12/06 09:39:32;;;;;;;50.52;28.05;;;;;;;2.53;74.57;98916.06;1716692;83;20161;-40
2021/12/06 09:41:59;;;;;;;45.80;25.75;;;;;;;2.43;74.79;98915.84;1716756;83;21960;-40
2021/12/06 09:44:27;;;;;;;44.10;26.15;;;;;;;2.48;74.78;98913.55;1706306;83;21531;-40
2021/12/06 09:46:54;;;;;;;46.02;27.00;;;;;;;2.53;74.70;98902.14;1697369;84;21054;-40
2021/12/06 09:49:22;;;;;;;47.00;27.15;;;;;;;2.54;74.56;98893.56;1697384;84;21013;-40
2021/12/06 09:51:56;;;;;;;48.25;25.77;;;;;;;2.49;74.53;98901.20;1697244;84;21590;-40
2021/12/06 09:54:27;;;;;;;43.15;26.23;;;;;;;2.43;74.80;98899.00;1697276;84;21114;-41
2021/12/06 09:56:54;;;;;;;48.17;27.55;;;;;;;2.44;74.91;98903.25;1697275;84;21566;-41
2021/12/06 09:59:24;;;;;;;49.55;27.48;;;;;;;2.52;74.80;98900.56;1697095;84;21052;-40
2021/12/06 10:01:56;;;;;;;41.35;23.65;;;;;;;2.54;74.90;98898.92;1697340;84;21532;-40
2021/12/06 10:04:27;;;;;;;47.95;26.77;;;;;;;2.55;74.85;98897.82;1697006;84;21059;-40
2021/12/06 10:06:54;;;;;;;47.08;27.48;;;;;;;2.38;74.70;98875.09;1697250;84;21132;-40
2021/12/06 10:09:22;;;;;;;53.68;29.55;;;;;;;2.48;74.70;98886.80;1697125;84;21084;-40
2021/12/06 10:11:49;;;;;;;50.67;29.45;;;;;;;2.46;74.91;98887.69;1697374;84;21934;-40
2021/12/06 10:14:16;;;;;;;53.87;28.25;;;;;;;2.42;75.08;98886.17;1697261;84;21564;-41
2021/12/06 10:16:44;;;;;;;49.90;28.12;;;;;;;2.42;75.18;98897.45;1697285;84;21085;-40
2021/12/06 10:19:10;;;;;;;44.00;27.22;;;;;;;2.42;75.17;98888.09;1697087;84;21811;-43
2021/12/06 10:21:38;;;;;;;48.68;27.55;;;;;;;2.45;75.12;98888.78;1697288;84;21022;-40
2021/12/06 10:24:11;;;;;;;51.08;29.27;;;;;;;2.48;75.37;98892.16;1697114;84;21542;-40
2021/12/06 10:26:38;;;;;;;50.20;28.92;;;;;;;2.53;75.28;98888.77;1697164;84;21006;-41
2021/12/06 10:29:09;;;;;;;47.25;28.85;;;;;;;2.60;75.05;98885.61;1697144;84;21042;-40
2021/12/06 10:31:43;;;;;;;59.20;32.50;;;;;;;2.66;74.74;98888.91;1697235;84;21152;-40
2021/12/06 10:34:16;;;;;;;56.13;31.95;;;;;;;2.67;74.58;98877.87;1697299;84;21029;-40
2021/12/06 10:36:43;;;;;;;69.15;34.03;;;;;;;2.61;74.67;98887.95;1672684;84;20989;-40
2021/12/06 10:39:10;;;;;;;62.30;33.38;;;;;;;2.59;74.79;98892.06;1697123;84;21038;-40
2021/12/06 10:41:37;;;;;;;56.02;32.00;;;;;;;2.58;74.82;98883.80;1697465;84;21006;-40
2021/12/06 10:44:13;;;;;;;59.03;34.30;;;;;;;2.66;74.65;98877.66;1697587;83;21113;-40
2021/12/06 10:46:42;;;;;;;56.25;32.65;;;;;;;2.67;74.54;98867.16;1699412;84;21024;-40
2021/12/06 10:49:17;;;;;;;72.47;36.10;;;;;;;2.65;74.77;98881.44;1699397;84;20974;-40
2021/12/06 10:51:45;;;;;;;63.45;33.23;;;;;;;2.65;74.89;98877.42;1699297;84;21030;-41
2021/12/06 10:54:31;;;;;;;144.70;42.20;;;;;;;2.69;74.69;98889.60;1699330;84;21054;-40
2021/12/06 10:56:55;;;;;;;63.63;34.92;;;;;;;2.75;74.59;98887.00;1698281;84;21022;-40
2021/12/06 10:59:23;;;;;;;;;;;;;;;2.72;74.51;98875.02;1701781;84;21053;-40
2021/12/06 11:01:54;;;;;;;79.17;37.48;;;;;;;2.73;74.57;98876.59;1699413;84;20129;-40
2021/12/06 11:04:26;;;;;;;65.10;35.50;;;;;;;2.60;74.73;98877.59;1699288;84;20980;-40
2021/12/06 11:06:58;;;;;;;121.57;39.92;;;;;;;2.58;74.64;98887.81;1699326;84;21582;-40
2021/12/06 11:09:27;;;;;;;72.87;35.63;;;;;;;2.64;74.59;98886.55;1699276;84;21125;-40
2021/12/06 11:11:58;;;;;;;71.28;35.90;;;;;;;2.63;74.59;98878.27;1699449;84;20986;-40
2021/12/06 11:14:35;;;;;;;66.05;34.40;;;;;;;2.61;74.59;98876.48;1699368;84;21534;-40
2021/12/06 11:17:18;;;;;;;58.52;33.58;;;;;;;2.55;74.74;98875.08;1698423;84;21519;-40
2021/12/06 11:19:44;;;;;;;62.40;33.38;;;;;;;2.52;74.70;98875.14;1699259;84;21049;-41
2021/12/06 11:22:20;;;;;;;64.32;35.08;;;;;;;2.55;74.82;98877.75;1699478;84;21151;-40
2021/12/06 11:24:51;;;;;;;62.45;35.03;;;;;;;2.53;75.00;98866.56;1699379;84;21237;-41
2021/12/06 11:27:30;;;;;;;59.18;32.83;;;;;;;2.15;75.06;98807.64;1699415;84;21054;-41
2021/12/06 11:30:03;;;;;;;85.95;34.67;;;;;;;2.44;75.30;98857.23;1699675;84;26604;-40
2021/12/06 11:32:36;;;;;;;80.17;35.05;;;;;;;2.40;75.30;98857.63;1699550;84;21090;-40
2021/12/06 11:35:12;;;;;;;67.37;35.88;;;;;;;2.36;75.55;98861.27;1699669;84;21593;-40
2021/12/06 11:37:45;;;;;;;58.92;32.33;;;;;;;2.33;75.68;98868.56;1699656;84;20982;-40
2021/12/06 11:40:26;;;;;;;63.00;33.28;;;;;;;2.34;75.74;98865.58;1699500;84;21050;-40
2021/12/06 11:43:00;;;;;;;57.95;33.18;;;;;;;2.35;75.68;98867.16;1699513;84;21082;-40
2021/12/06 11:45:55;;;;;;;57.13;33.90;;;;;;;2.34;75.88;98868.26;1698089;84;21572;-41
2021/12/06 11:48:31;;;;;;;61.35;32.42;;;;;;;2.32;76.02;98879.05;1697422;84;21563;-40
2021/12/06 11:51:14;;;;;;;58.63;33.00;;;;;;;2.32;76.08;98879.05;1697462;84;21535;-40